Terminal Aerodrome Forecast
Issued by NWS Sioux Falls, SD

Home | Current Version | Previous Version | Text Only | Print | Product List | Glossary On
Versions: 1 2 3 4 5 6 7 8 9 10 11 12 13
000
FTUS43 KFSD 241120
TAFHON
TAF
KHON 241120Z 2412/2512 30006KT P6SM SKC
     FM241800 30012G19KT P6SM SCT150
     FM250100 30009KT P6SM BKN120=

USA.gov is the U.S. government's official web portal to all federal, state and local government web resources and services.